Terminal Aerodrome Forecast
Issued by NWS Rapid City, SD

Home | Current Version | Previous Version | Text Only | Print | Product List | Glossary On
Versions: 1 2 3 4 5 6 7 8 9 10 11 12 13 14
000
FTUS43 KUNR 280500
TAFRAP
TAF
KRAP 280523Z 2806/2906 33008KT P6SM SCT250
     FM280900 17010KT P6SM SKC
     FM282000 22015G25KT P6SM SCT250
     FM282300 33018G28KT P6SM SCT250
     FM290200 33036G50KT P6SM BKN250=

USA.gov is the U.S. government's official web portal to all federal, state and local government web resources and services.